createdAt,value
2023-06-16T00:01:10.231Z,17.23
2023-06-16T00:03:37.248Z,17.23
2023-06-16T00:06:06.119Z,17.28
2023-06-16T00:08:33.053Z,17.23
2023-06-16T00:11:00.487Z,17.27
2023-06-16T00:13:27.412Z,17.25
2023-06-16T00:15:55.697Z,17.30
2023-06-16T00:18:22.968Z,17.35
2023-06-16T00:20:49.893Z,17.37
2023-06-16T00:23:20.677Z,17.42
2023-06-16T00:25:48.815Z,17.37
2023-06-16T00:28:15.732Z,17.28
2023-06-16T00:30:44.132Z,17.11
2023-06-16T00:33:12.576Z,16.72
2023-06-16T00:35:39.845Z,16.61
2023-06-16T00:38:06.824Z,16.28
2023-06-16T00:40:33.858Z,16.36
2023-06-16T00:43:00.878Z,16.42
2023-06-16T00:45:29.820Z,16.43
2023-06-16T00:47:57.664Z,16.48
2023-06-16T00:50:28.103Z,16.56
2023-06-16T00:52:56.440Z,16.48
2023-06-16T00:55:23.839Z,16.41
2023-06-16T00:57:52.002Z,16.40
2023-06-16T01:00:20.261Z,16.41
2023-06-16T01:02:50.561Z,16.32
2023-06-16T01:05:25.481Z,16.34
2023-06-16T01:08:07.860Z,16.41
2023-06-16T01:10:46.048Z,16.44
2023-06-16T01:13:25.461Z,16.52
2023-06-16T01:15:54.217Z,16.09
2023-06-16T01:18:25.178Z,15.83
2023-06-16T01:21:00.756Z,15.76
2023-06-16T01:23:45.269Z,15.85
2023-06-16T01:26:14.612Z,15.97
2023-06-16T01:28:43.874Z,16.15
2023-06-16T01:31:13.889Z,16.33
2023-06-16T01:33:43.070Z,16.44
2023-06-16T01:36:10.722Z,16.54
2023-06-16T01:38:39.762Z,16.59
2023-06-16T01:41:07.922Z,16.68
2023-06-16T01:43:37.193Z,16.73
2023-06-16T01:46:05.714Z,16.79
2023-06-16T01:48:33.531Z,16.67
2023-06-16T01:51:03.031Z,16.66
2023-06-16T01:53:30.027Z,16.59
2023-06-16T01:55:57.187Z,16.26
2023-06-16T01:58:27.019Z,15.80
2023-06-16T02:01:24.752Z,15.71
2023-06-16T02:04:00.146Z,15.93
2023-06-16T02:06:33.261Z,15.76
2023-06-16T02:09:05.718Z,15.65
2023-06-16T02:11:34.362Z,15.94
2023-06-16T02:14:02.753Z,16.18
2023-06-16T02:16:36.860Z,16.37
2023-06-16T02:19:03.962Z,16.53
2023-06-16T02:21:31.200Z,16.66
2023-06-16T02:23:58.205Z,16.77
2023-06-16T02:26:25.411Z,16.85
2023-06-16T02:28:52.852Z,16.90
2023-06-16T02:31:20.159Z,16.96
2023-06-16T02:33:51.433Z,16.92
2023-06-16T02:36:18.431Z,16.85
2023-06-16T02:38:45.558Z,16.74
2023-06-16T02:41:12.554Z,16.80
2023-06-16T02:43:39.539Z,16.78
2023-06-16T02:46:07.888Z,16.74
2023-06-16T02:48:35.185Z,16.64
2023-06-16T02:51:03.610Z,16.70
2023-06-16T02:53:30.711Z,16.66
2023-06-16T02:56:00.739Z,16.39
2023-06-16T02:58:30.074Z,16.29
2023-06-16T03:00:56.998Z,16.21
2023-06-16T03:03:53.007Z,16.14
2023-06-16T03:06:30.332Z,16.02
2023-06-16T03:09:54.844Z,16.09
2023-06-16T03:12:29.845Z,16.21
2023-06-16T03:15:14.028Z,16.33
2023-06-16T03:17:48.770Z,16.45
2023-06-16T03:20:34.410Z,16.48
2023-06-16T03:23:43.638Z,16.35
2023-06-16T03:26:12.054Z,16.18
2023-06-16T03:28:58.229Z,16.07
2023-06-16T03:31:27.502Z,16.12
2023-06-16T03:33:56.798Z,16.24
2023-06-16T03:36:27.717Z,16.34
2023-06-16T03:38:56.171Z,16.44
2023-06-16T03:41:23.704Z,16.48
2023-06-16T03:43:50.861Z,16.36
2023-06-16T03:46:18.306Z,16.38
2023-06-16T03:48:45.934Z,16.47
2023-06-16T03:51:12.986Z,16.58
2023-06-16T03:53:40.489Z,16.75
2023-06-16T03:56:09.569Z,16.58
2023-06-16T03:58:37.622Z,16.83
2023-06-16T04:01:05.010Z,16.68
2023-06-16T04:03:34.931Z,16.96
2023-06-16T04:06:03.800Z,17.07
2023-06-16T04:08:31.343Z,17.45
2023-06-16T04:10:58.298Z,17.82
2023-06-16T04:13:27.782Z,18.07
2023-06-16T04:15:54.679Z,18.41
2023-06-16T04:18:21.648Z,18.36
2023-06-16T04:20:48.666Z,18.58
2023-06-16T04:23:16.716Z,18.78
2023-06-16T04:25:43.839Z,18.73
2023-06-16T04:28:10.760Z,19.06
2023-06-16T04:30:39.357Z,19.32
2023-06-16T04:33:06.758Z,19.54
2023-06-16T04:35:35.069Z,19.61
2023-06-16T04:38:03.949Z,18.68
2023-06-16T04:40:32.634Z,18.67
2023-06-16T04:42:59.817Z,18.92
2023-06-16T04:45:28.263Z,18.43
2023-06-16T04:47:56.704Z,18.85
2023-06-16T04:50:24.026Z,18.87
2023-06-16T04:52:51.633Z,18.85
2023-06-16T04:55:19.921Z,19.23
2023-06-16T04:57:46.935Z,19.17
2023-06-16T05:00:15.050Z,19.52
2023-06-16T05:02:43.114Z,19.57
2023-06-16T05:05:11.520Z,19.84
2023-06-16T05:07:38.683Z,19.78
2023-06-16T05:10:09.231Z,19.89
2023-06-16T05:12:37.598Z,19.73
2023-06-16T05:15:06.837Z,20.02
2023-06-16T05:17:35.041Z,20.29
2023-06-16T05:20:02.172Z,20.58
2023-06-16T05:22:31.603Z,20.76
2023-06-16T05:24:58.656Z,21.09
2023-06-16T05:27:26.164Z,20.96
2023-06-16T05:29:59.331Z,21.07
2023-06-16T05:32:31.726Z,21.34
2023-06-16T05:35:00.383Z,21.74
2023-06-16T05:37:28.875Z,22.50
2023-06-16T05:39:57.335Z,22.99
2023-06-16T05:42:25.271Z,23.75
2023-06-16T05:44:53.102Z,23.51
2023-06-16T05:47:20.592Z,24.01
2023-06-16T05:49:49.348Z,24.30
2023-06-16T05:52:17.146Z,24.94
2023-06-16T05:54:44.788Z,24.30
2023-06-16T05:57:19.946Z,24.13
2023-06-16T05:59:47.084Z,22.55
2023-06-16T06:02:14.185Z,23.71
2023-06-16T06:04:43.871Z,25.03
2023-06-16T06:07:12.557Z,25.79
2023-06-16T06:09:40.064Z,25.59
2023-06-16T06:12:09.794Z,26.76
2023-06-16T06:14:39.651Z,27.42
2023-06-16T06:17:07.359Z,26.84
2023-06-16T06:19:34.401Z,27.39
2023-06-16T06:22:03.445Z,28.29
2023-06-16T06:24:31.114Z,28.88
2023-06-16T06:26:59.908Z,29.40
2023-06-16T06:29:27.112Z,29.67
2023-06-16T06:31:55.386Z,29.99
2023-06-16T06:34:22.638Z,29.84
2023-06-16T06:36:49.824Z,29.87
2023-06-16T06:39:18.422Z,30.07
2023-06-16T06:41:49.629Z,30.09
2023-06-16T06:44:22.446Z,30.13
2023-06-16T06:46:50.518Z,30.37
2023-06-16T06:49:20.219Z,30.12
2023-06-16T06:51:47.153Z,30.17
2023-06-16T06:54:16.756Z,29.83
2023-06-16T06:56:43.702Z,29.77
2023-06-16T06:59:10.793Z,29.50
2023-06-16T07:01:39.036Z,28.95
2023-06-16T07:04:08.282Z,27.49
2023-06-16T07:06:36.912Z,27.33
2023-06-16T07:09:04.100Z,26.99
2023-06-16T07:11:31.026Z,26.67
2023-06-16T07:13:58.560Z,26.86
2023-06-16T07:16:25.568Z,27.37
2023-06-16T07:18:52.618Z,26.42
2023-06-16T07:21:20.006Z,26.65
2023-06-16T07:23:48.319Z,27.43
2023-06-16T07:26:15.280Z,27.63
2023-06-16T07:28:42.177Z,27.38
2023-06-16T07:31:09.106Z,27.06
2023-06-16T07:33:35.989Z,26.61
2023-06-16T07:36:03.863Z,26.92
2023-06-16T07:38:30.827Z,27.29
2023-06-16T07:40:59.325Z,27.74
2023-06-16T07:43:26.300Z,27.49
2023-06-16T07:45:53.343Z,27.51
2023-06-16T07:48:20.279Z,26.73
2023-06-16T07:50:47.358Z,27.03
2023-06-16T07:53:14.379Z,27.20
2023-06-16T07:55:41.556Z,27.42
2023-06-16T07:58:09.933Z,27.46
2023-06-16T08:00:37.166Z,27.09
2023-06-16T08:03:04.416Z,26.40
2023-06-16T08:05:31.397Z,25.97
2023-06-16T08:07:58.384Z,26.20
2023-06-16T08:10:25.353Z,26.37
2023-06-16T08:12:52.362Z,26.27
2023-06-16T08:15:21.110Z,25.95
2023-06-16T08:17:48.286Z,26.26
2023-06-16T08:20:15.338Z,26.02
2023-06-16T08:22:42.190Z,26.52
2023-06-16T08:25:10.434Z,26.67
2023-06-16T08:27:40.334Z,27.28
2023-06-16T08:30:08.543Z,27.67
2023-06-16T08:32:38.628Z,26.94
2023-06-16T08:35:07.339Z,26.77
2023-06-16T08:37:34.167Z,27.34
2023-06-16T08:40:01.155Z,27.84
2023-06-16T08:42:31.590Z,28.06
2023-06-16T08:45:01.318Z,28.15
2023-06-16T08:47:28.372Z,28.22
2023-06-16T08:49:56.917Z,28.14
2023-06-16T08:52:34.805Z,28.48
2023-06-16T08:55:13.344Z,27.56
2023-06-16T08:57:45.651Z,27.73
2023-06-16T09:00:13.900Z,27.91
2023-06-16T09:02:42.969Z,28.06
2023-06-16T09:05:13.362Z,28.32
2023-06-16T09:07:40.414Z,28.52
2023-06-16T09:10:08.896Z,28.83
2023-06-16T09:13:34.121Z,28.62
2023-06-16T09:16:01.548Z,28.91
2023-06-16T09:18:37.706Z,28.88
2023-06-16T09:21:07.795Z,28.60
2023-06-16T09:23:35.163Z,28.78
2023-06-16T09:26:10.443Z,28.87
2023-06-16T09:28:37.874Z,28.89
2023-06-16T09:31:12.383Z,28.84
2023-06-16T09:33:40.264Z,28.72
2023-06-16T09:36:09.640Z,28.49
2023-06-16T09:38:37.803Z,28.79
2023-06-16T09:41:09.191Z,28.92
2023-06-16T09:43:38.469Z,29.12
2023-06-16T09:46:09.492Z,29.24
2023-06-16T09:48:46.264Z,29.51
2023-06-16T09:51:17.872Z,29.26
2023-06-16T09:53:45.649Z,29.24
2023-06-16T09:56:15.076Z,29.61
2023-06-16T09:58:42.944Z,29.63
2023-06-16T10:01:11.105Z,29.80
2023-06-16T10:03:39.314Z,29.94
2023-06-16T10:06:16.711Z,30.33
2023-06-16T10:08:48.704Z,30.60
2023-06-16T10:11:17.569Z,30.52
2023-06-16T10:13:51.335Z,30.35
2023-06-16T10:16:24.574Z,30.03
2023-06-16T10:18:55.187Z,29.66
2023-06-16T10:21:23.642Z,29.62
2023-06-16T10:23:52.965Z,29.68
2023-06-16T10:26:21.324Z,30.29
2023-06-16T10:28:49.813Z,30.50
2023-06-16T10:31:16.891Z,30.71
2023-06-16T10:33:54.075Z,31.09
2023-06-16T10:36:24.515Z,31.17
2023-06-16T10:39:02.605Z,31.17
2023-06-16T10:41:30.478Z,31.47
2023-06-16T10:44:17.754Z,31.34
2023-06-16T10:46:45.066Z,31.56
2023-06-16T10:49:13.293Z,31.58
2023-06-16T10:51:45.852Z,31.41
2023-06-16T10:54:34.939Z,31.61
2023-06-16T11:00:02.686Z,32.00
2023-06-16T11:02:34.354Z,31.30
2023-06-16T11:05:15.792Z,31.59
2023-06-16T11:07:44.934Z,31.65
2023-06-16T11:10:19.701Z,32.00
2023-06-16T11:12:48.314Z,31.82
2023-06-16T11:15:15.611Z,31.42
2023-06-16T11:17:44.098Z,31.42
2023-06-16T11:20:13.159Z,31.77
2023-06-16T11:22:41.341Z,32.20
2023-06-16T11:25:09.225Z,31.72
2023-06-16T11:27:38.906Z,31.13
2023-06-16T11:30:07.638Z,30.65
2023-06-16T11:32:36.091Z,30.32
2023-06-16T11:35:05.484Z,29.82
2023-06-16T11:37:47.360Z,29.60
2023-06-16T11:40:19.575Z,29.47
2023-06-16T11:42:56.107Z,30.03
2023-06-16T11:45:23.872Z,30.14
2023-06-16T11:47:51.676Z,29.69
2023-06-16T11:50:20.357Z,29.48
2023-06-16T11:52:48.513Z,29.55
2023-06-16T11:55:15.626Z,29.51
2023-06-16T11:57:42.742Z,29.52
2023-06-16T12:00:13.879Z,29.86
2023-06-16T12:02:46.715Z,30.72
2023-06-16T12:05:24.215Z,30.41
2023-06-16T12:07:51.319Z,29.74
2023-06-16T12:10:19.153Z,29.34
2023-06-16T12:12:47.512Z,29.33
2023-06-16T12:15:18.123Z,29.50
2023-06-16T12:17:46.124Z,29.69
2023-06-16T12:20:14.885Z,29.58
2023-06-16T12:22:42.018Z,29.33
2023-06-16T12:25:13.757Z,29.24
2023-06-16T12:27:44.938Z,28.67
2023-06-16T12:30:13.782Z,28.58
2023-06-16T12:32:43.628Z,28.47
2023-06-16T12:35:11.038Z,28.52
2023-06-16T12:37:41.389Z,28.90
2023-06-16T12:40:11.369Z,28.89
2023-06-16T12:42:41.385Z,29.07
2023-06-16T12:45:10.532Z,29.25
2023-06-16T12:47:39.165Z,29.38
2023-06-16T12:50:09.776Z,29.39
2023-06-16T12:52:36.982Z,29.68
2023-06-16T12:55:05.139Z,29.47
2023-06-16T12:57:34.496Z,29.41
2023-06-16T13:00:01.811Z,29.41
2023-06-16T13:02:29.867Z,29.41
2023-06-16T13:04:57.817Z,29.21
2023-06-16T13:10:23.834Z,29.27
2023-06-16T13:12:50.888Z,29.05
2023-06-16T13:15:17.955Z,29.15
2023-06-16T13:17:45.341Z,29.09
2023-06-16T13:20:13.316Z,29.04
2023-06-16T13:22:40.281Z,28.80
2023-06-16T13:25:07.895Z,28.68
2023-06-16T13:27:36.412Z,28.66
2023-06-16T13:30:03.752Z,28.53
2023-06-16T13:32:31.144Z,28.65
2023-06-16T13:34:58.067Z,28.52
2023-06-16T13:37:24.956Z,28.63
2023-06-16T13:39:51.938Z,28.67
2023-06-16T13:42:18.895Z,28.74
2023-06-16T13:44:47.328Z,28.71
2023-06-16T13:47:14.321Z,28.57
2023-06-16T13:49:41.338Z,28.41
2023-06-16T13:52:09.145Z,28.36
2023-06-16T13:54:36.898Z,28.63
2023-06-16T13:57:04.485Z,28.67
2023-06-16T13:59:31.369Z,28.60
2023-06-16T14:02:01.213Z,28.63
2023-06-16T14:04:28.657Z,28.68
2023-06-16T14:06:57.609Z,28.49
2023-06-16T14:09:25.005Z,28.49
2023-06-16T14:11:52.177Z,28.57
2023-06-16T14:14:19.084Z,28.65
2023-06-16T14:16:47.038Z,28.68
2023-06-16T14:19:15.517Z,28.53
2023-06-16T14:21:42.878Z,28.40
2023-06-16T14:24:09.897Z,28.52
2023-06-16T14:26:37.667Z,28.72
2023-06-16T14:29:04.553Z,28.69
2023-06-16T14:31:31.480Z,28.66
2023-06-16T14:33:58.376Z,28.74
2023-06-16T14:36:26.646Z,28.56
2023-06-16T14:38:53.792Z,28.54
2023-06-16T14:41:21.012Z,28.62
2023-06-16T14:43:48.326Z,28.67
2023-06-16T14:46:15.406Z,28.72
2023-06-16T14:48:43.476Z,28.67
2023-06-16T14:51:10.504Z,28.66
2023-06-16T14:53:38.889Z,28.60
2023-06-16T14:56:06.898Z,28.61
2023-06-16T14:58:33.963Z,28.66
2023-06-16T15:01:00.898Z,28.70
2023-06-16T15:03:27.984Z,28.68
2023-06-16T15:05:55.225Z,28.48
2023-06-16T15:08:22.177Z,28.51
2023-06-16T15:10:50.516Z,28.52
2023-06-16T15:13:18.045Z,28.54
2023-06-16T15:15:45.287Z,28.63
2023-06-16T15:18:12.259Z,28.63
2023-06-16T15:20:39.200Z,28.53
2023-06-16T15:23:06.129Z,28.52
2023-06-16T15:25:33.963Z,28.63
2023-06-16T15:28:11.606Z,28.44
2023-06-16T15:30:40.560Z,28.46
2023-06-16T15:33:07.946Z,28.43
2023-06-16T15:35:34.999Z,28.24
2023-06-16T15:38:01.915Z,28.28
2023-06-16T15:40:28.745Z,28.11
2023-06-16T15:43:04.583Z,28.01
2023-06-16T15:45:31.626Z,27.97
2023-06-16T15:47:58.633Z,27.81
2023-06-16T15:50:27.302Z,27.87
2023-06-16T15:52:54.437Z,27.95
2023-06-16T15:55:21.394Z,28.13
2023-06-16T15:57:48.338Z,28.30
2023-06-16T16:00:17.374Z,28.30
2023-06-16T16:02:45.263Z,28.16
2023-06-16T16:05:12.349Z,28.07
2023-06-16T16:08:14.324Z,28.06
2023-06-16T16:10:41.528Z,28.07
2023-06-16T16:13:09.109Z,28.22
2023-06-16T16:15:37.639Z,28.23
2023-06-16T16:18:05.116Z,28.14
2023-06-16T16:20:32.200Z,28.18
2023-06-16T16:22:59.198Z,28.22
2023-06-16T16:25:26.848Z,28.07
2023-06-16T16:27:55.117Z,28.02
2023-06-16T16:30:22.726Z,28.04
2023-06-16T16:32:51.351Z,28.08
2023-06-16T16:35:19.871Z,27.97
2023-06-16T16:37:47.370Z,28.02
2023-06-16T16:40:15.419Z,27.98
2023-06-16T16:42:43.219Z,28.07
2023-06-16T16:45:11.355Z,28.03
2023-06-16T16:47:38.598Z,28.13
2023-06-16T16:50:08.419Z,28.24
2023-06-16T16:52:35.860Z,28.23
2023-06-16T16:55:04.285Z,28.19
2023-06-16T16:57:31.461Z,28.27
2023-06-16T16:59:58.522Z,28.26
2023-06-16T17:02:26.030Z,28.24
2023-06-16T17:04:53.352Z,28.10
2023-06-16T17:07:21.837Z,28.01
2023-06-16T17:09:49.152Z,27.99
2023-06-16T17:12:16.170Z,27.91
2023-06-16T17:14:44.464Z,27.83
2023-06-16T17:17:12.172Z,27.65
2023-06-16T17:19:39.077Z,27.49
2023-06-16T17:22:06.911Z,27.34
2023-06-16T17:24:35.329Z,27.17
2023-06-16T17:27:02.332Z,27.10
2023-06-16T17:29:29.254Z,27.00
2023-06-16T17:31:56.177Z,27.02
2023-06-16T17:34:23.379Z,27.00
2023-06-16T17:36:50.308Z,26.84
2023-06-16T17:39:18.036Z,26.75
2023-06-16T17:41:46.988Z,26.63
2023-06-16T17:44:16.907Z,26.60
2023-06-16T17:46:44.009Z,26.45
2023-06-16T17:49:10.962Z,26.30
2023-06-16T17:51:37.898Z,26.14
2023-06-16T17:54:05.233Z,26.20
2023-06-16T17:56:33.460Z,26.13
2023-06-16T17:59:02.454Z,25.94
2023-06-16T18:01:30.022Z,25.95
2023-06-16T18:03:57.908Z,25.45
2023-06-16T18:06:24.875Z,25.09
2023-06-16T18:08:51.918Z,24.86
2023-06-16T18:11:18.913Z,24.83
2023-06-16T18:13:46.110Z,24.79
2023-06-16T18:16:14.836Z,24.77
2023-06-16T18:18:41.781Z,24.71
2023-06-16T18:21:09.031Z,24.73
2023-06-16T18:23:35.954Z,24.72
2023-06-16T18:26:03.460Z,24.62
2023-06-16T18:28:30.423Z,24.71
2023-06-16T18:30:58.950Z,24.69
2023-06-16T18:33:27.409Z,24.57
2023-06-16T18:35:54.429Z,24.60
2023-06-16T18:38:21.354Z,24.51
2023-06-16T18:40:48.394Z,24.56
2023-06-16T18:43:16.408Z,24.57
2023-06-16T18:45:43.315Z,24.50
2023-06-16T18:48:10.556Z,24.40
2023-06-16T18:50:38.848Z,24.28
2023-06-16T18:53:05.809Z,24.30
2023-06-16T18:55:32.790Z,24.24
2023-06-16T18:57:59.977Z,24.12
2023-06-16T19:00:26.906Z,24.15
2023-06-16T19:02:54.195Z,24.13
2023-06-16T19:05:21.383Z,24.12
2023-06-16T19:08:01.144Z,24.13
2023-06-16T19:10:28.298Z,24.11
2023-06-16T19:12:55.313Z,24.01
2023-06-16T19:15:22.223Z,24.01
2023-06-16T19:17:49.460Z,23.97
2023-06-16T19:20:16.760Z,23.93
2023-06-16T19:22:44.084Z,23.94
2023-06-16T19:25:12.457Z,23.89
2023-06-16T19:27:39.769Z,23.91
2023-06-16T19:30:07.853Z,23.92
2023-06-16T19:33:27.161Z,23.83
2023-06-16T19:35:54.848Z,23.61
2023-06-16T19:38:24.164Z,23.50
2023-06-16T19:40:52.693Z,23.40
2023-06-16T19:43:20.169Z,23.28
2023-06-16T19:45:47.152Z,23.19
2023-06-16T19:48:14.219Z,23.25
2023-06-16T19:50:41.363Z,23.26
2023-06-16T19:53:08.390Z,23.21
2023-06-16T19:55:45.213Z,23.02
2023-06-16T19:58:20.309Z,22.79
2023-06-16T20:00:49.742Z,22.67
2023-06-16T20:03:16.703Z,22.44
2023-06-16T20:05:44.381Z,22.30
2023-06-16T20:08:11.368Z,22.13
2023-06-16T20:10:38.253Z,22.04
2023-06-16T20:13:05.297Z,22.03
2023-06-16T20:15:33.608Z,22.02
2023-06-16T20:18:00.686Z,22.06
2023-06-16T20:20:28.342Z,21.97
2023-06-16T20:22:56.118Z,21.89
2023-06-16T20:25:23.279Z,21.80
2023-06-16T20:27:53.634Z,21.68
2023-06-16T20:30:21.185Z,21.63
2023-06-16T20:32:50.969Z,21.39
2023-06-16T20:35:20.768Z,21.25
2023-06-16T20:37:48.099Z,21.07
2023-06-16T20:40:15.057Z,20.89
2023-06-16T20:42:42.370Z,20.83
2023-06-16T20:45:10.580Z,20.66
2023-06-16T20:47:38.257Z,20.65
2023-06-16T20:50:09.461Z,20.65
2023-06-16T20:52:36.362Z,20.66
2023-06-16T20:55:06.621Z,20.63
2023-06-16T20:57:33.496Z,20.68
2023-06-16T21:00:00.611Z,20.68
2023-06-16T21:02:27.567Z,20.52
2023-06-16T21:04:57.673Z,20.46
2023-06-16T21:07:26.108Z,20.53
2023-06-16T21:09:52.989Z,20.53
2023-06-16T21:12:21.223Z,20.38
2023-06-16T21:14:48.195Z,20.26
2023-06-16T21:17:15.168Z,20.25
2023-06-16T21:19:46.579Z,20.23
2023-06-16T21:22:14.889Z,20.08
2023-06-16T21:24:43.161Z,19.75
2023-06-16T21:27:10.456Z,19.68
2023-06-16T21:29:37.551Z,19.65
2023-06-16T21:32:05.250Z,19.63
2023-06-16T21:34:32.151Z,19.68
2023-06-16T21:36:59.708Z,19.72
2023-06-16T21:39:26.919Z,19.70
2023-06-16T21:41:55.210Z,19.67
2023-06-16T21:44:22.139Z,19.62
2023-06-16T21:46:49.359Z,19.58
2023-06-16T21:49:16.349Z,19.41
2023-06-16T21:51:43.322Z,19.18
2023-06-16T21:54:10.182Z,19.00
2023-06-16T21:56:37.263Z,19.03
2023-06-16T21:59:05.578Z,19.00
2023-06-16T22:01:33.956Z,18.88
2023-06-16T22:04:01.216Z,18.91
2023-06-16T22:06:28.360Z,18.92
2023-06-16T22:08:55.353Z,18.99
2023-06-16T22:11:22.370Z,19.04
2023-06-16T22:13:49.254Z,19.07
2023-06-16T22:16:17.809Z,19.03
2023-06-16T22:18:44.927Z,19.00
2023-06-16T22:21:12.100Z,18.84
2023-06-16T22:23:39.027Z,18.77
2023-06-16T22:26:05.963Z,18.69
2023-06-16T22:28:33.333Z,18.54
2023-06-16T22:31:02.955Z,18.54
2023-06-16T22:33:31.609Z,18.54
2023-06-16T22:35:59.901Z,18.61
2023-06-16T22:38:26.798Z,18.68
2023-06-16T22:40:53.713Z,18.76
2023-06-16T22:43:20.655Z,18.66
2023-06-16T22:45:47.680Z,18.65
2023-06-16T22:48:14.810Z,18.61
2023-06-16T22:50:43.571Z,18.54
2023-06-16T22:53:10.402Z,18.45
2023-06-16T22:55:37.520Z,18.47
2023-06-16T22:58:04.420Z,18.56
2023-06-16T23:00:31.485Z,18.52
2023-06-16T23:02:58.499Z,18.36
2023-06-16T23:05:25.554Z,18.23
2023-06-16T23:07:53.916Z,18.32
2023-06-16T23:10:21.584Z,18.38
2023-06-16T23:12:48.685Z,18.32
2023-06-16T23:15:15.575Z,18.20
2023-06-16T23:17:42.635Z,18.19
2023-06-16T23:20:11.669Z,18.17
2023-06-16T23:22:38.607Z,18.14
2023-06-16T23:25:09.668Z,18.20
2023-06-16T23:27:36.628Z,18.31
2023-06-16T23:30:04.415Z,18.39
2023-06-16T23:32:31.835Z,18.44
2023-06-16T23:35:01.406Z,18.46
2023-06-16T23:37:28.740Z,18.14
2023-06-16T23:39:55.717Z,18.19
2023-06-16T23:42:24.145Z,17.79
2023-06-16T23:44:51.414Z,17.83
2023-06-16T23:47:18.408Z,17.98
2023-06-16T23:49:45.302Z,18.08
2023-06-16T23:52:12.170Z,18.18
2023-06-16T23:54:47.456Z,18.19
2023-06-16T23:57:18.566Z,18.15
2023-06-16T23:59:47.262Z,18.15
